createdAt,value
2019-02-21T00:02:15.435Z,3.90
2019-02-21T00:04:46.491Z,3.90
2019-02-21T00:07:17.721Z,3.90
2019-02-21T00:09:48.999Z,3.80
2019-02-21T00:12:20.099Z,3.70
2019-02-21T00:14:51.036Z,3.70
2019-02-21T00:17:22.859Z,3.70
2019-02-21T00:19:54.759Z,3.70
2019-02-21T00:22:26.296Z,3.60
2019-02-21T00:24:57.578Z,3.60
2019-02-21T00:27:28.572Z,3.60
2019-02-21T00:29:59.939Z,3.60
2019-02-21T00:32:31.691Z,3.60
2019-02-21T00:35:03.264Z,3.60
2019-02-21T00:37:35.114Z,3.60
2019-02-21T00:40:07.252Z,3.50
2019-02-21T00:42:37.615Z,3.50
2019-02-21T00:45:08.919Z,3.40
2019-02-21T00:47:40.442Z,3.40
2019-02-21T00:50:11.427Z,3.40
2019-02-21T00:52:43.247Z,3.40
2019-02-21T00:55:14.506Z,3.40
2019-02-21T00:57:46.122Z,3.30
2019-02-21T01:00:18.025Z,3.30
2019-02-21T01:02:49.241Z,3.30
2019-02-21T01:05:21.085Z,3.30
2019-02-21T01:07:52.389Z,3.30
2019-02-21T01:10:24.054Z,3.20
2019-02-21T01:12:54.960Z,3.20
2019-02-21T01:15:26.630Z,3.10
2019-02-21T01:17:58.175Z,3.10
2019-02-21T01:20:29.736Z,3.10
2019-02-21T01:23:01.127Z,3.00
2019-02-21T01:25:32.701Z,2.90
2019-02-21T01:28:04.554Z,2.90
2019-02-21T01:30:36.195Z,2.90
2019-02-21T01:33:07.779Z,2.90
2019-02-21T01:35:38.785Z,2.80
2019-02-21T01:38:10.605Z,2.80
2019-02-21T01:40:41.671Z,2.90
2019-02-21T01:43:13.224Z,2.90
2019-02-21T01:45:44.518Z,2.80
2019-02-21T01:48:16.099Z,2.80
2019-02-21T01:50:47.932Z,2.80
2019-02-21T01:53:19.227Z,2.90
2019-02-21T01:55:50.504Z,2.90
2019-02-21T01:58:22.118Z,2.90
2019-02-21T02:00:53.368Z,2.90
2019-02-21T02:03:24.677Z,2.90
2019-02-21T02:05:55.694Z,2.90
2019-02-21T02:08:27.547Z,2.90
2019-02-21T02:10:59.074Z,2.90
2019-02-21T02:13:31.020Z,2.80
2019-02-21T02:16:02.810Z,2.70
2019-02-21T02:18:34.643Z,2.70
2019-02-21T02:21:07.155Z,2.70
2019-02-21T02:23:38.401Z,2.80
2019-02-21T02:26:09.942Z,2.80
2019-02-21T02:28:41.766Z,2.80
2019-02-21T02:31:22.631Z,2.80
2019-02-21T02:33:46.419Z,2.80
2019-02-21T02:36:17.713Z,2.80
2019-02-21T02:38:49.234Z,2.80
2019-02-21T02:41:20.781Z,2.80
2019-02-21T02:43:52.342Z,2.80
2019-02-21T02:46:22.943Z,2.80
2019-02-21T02:48:54.482Z,2.80
2019-02-21T02:51:25.863Z,2.80
2019-02-21T02:53:57.087Z,2.80
2019-02-21T02:56:28.900Z,2.80
2019-02-21T02:59:00.446Z,2.90
2019-02-21T03:01:34.816Z,2.90
2019-02-21T03:04:05.015Z,2.90
2019-02-21T03:06:36.545Z,3.00
2019-02-21T03:09:11.839Z,3.00
2019-02-21T03:11:43.276Z,3.00
2019-02-21T03:14:14.850Z,3.00
2019-02-21T03:16:46.076Z,3.00
2019-02-21T03:19:17.935Z,2.90
2019-02-21T03:21:49.881Z,3.00
2019-02-21T03:24:21.688Z,3.00
2019-02-21T03:26:52.707Z,3.00
2019-02-21T03:29:23.980Z,3.00
2019-02-21T03:31:56.265Z,3.00
2019-02-21T03:34:28.422Z,3.00
2019-02-21T03:36:59.670Z,3.10
2019-02-21T03:39:30.958Z,3.10
2019-02-21T03:42:02.495Z,3.30
2019-02-21T03:44:33.489Z,3.40
2019-02-21T03:47:04.701Z,3.40
2019-02-21T03:49:35.668Z,3.40
2019-02-21T03:52:07.558Z,3.50
2019-02-21T03:54:38.768Z,3.50
2019-02-21T03:57:09.993Z,3.70
2019-02-21T03:59:41.595Z,3.70
2019-02-21T04:02:12.548Z,3.80
2019-02-21T04:04:44.400Z,3.80
2019-02-21T04:07:15.634Z,3.80
2019-02-21T04:09:47.515Z,3.80
2019-02-21T04:12:19.283Z,3.80
2019-02-21T04:14:49.914Z,3.70
2019-02-21T04:17:20.824Z,3.80
2019-02-21T04:19:52.130Z,3.80
2019-02-21T04:22:23.129Z,3.80
2019-02-21T04:24:54.410Z,3.90
2019-02-21T04:27:26.274Z,3.90
2019-02-21T04:29:57.522Z,4.00
2019-02-21T04:32:29.083Z,4.00
2019-02-21T04:35:00.659Z,4.10
2019-02-21T04:37:32.190Z,4.20
2019-02-21T04:40:03.610Z,4.20
2019-02-21T04:42:34.536Z,4.20
2019-02-21T04:45:06.140Z,4.40
2019-02-21T04:47:37.690Z,4.60
2019-02-21T04:50:09.017Z,4.70
2019-02-21T04:52:40.383Z,4.80
2019-02-21T04:55:11.008Z,4.70
2019-02-21T04:57:42.535Z,4.90
2019-02-21T05:00:14.985Z,4.80
2019-02-21T05:02:46.499Z,4.80
2019-02-21T05:05:17.754Z,4.90
2019-02-21T05:07:48.968Z,4.90
2019-02-21T05:10:20.509Z,4.90
2019-02-21T05:12:52.347Z,4.90
2019-02-21T05:15:23.872Z,4.80
2019-02-21T05:17:55.674Z,4.70
2019-02-21T05:20:26.967Z,4.80
2019-02-21T05:22:57.976Z,4.80
2019-02-21T05:25:28.952Z,4.80
2019-02-21T05:28:18.041Z,4.80
2019-02-21T05:30:51.434Z,4.80
2019-02-21T05:33:40.758Z,4.80
2019-02-21T05:36:46.025Z,4.80
2019-02-21T05:39:33.452Z,4.70
2019-02-21T05:42:13.525Z,4.70
2019-02-21T05:45:11.435Z,4.70
2019-02-21T05:48:01.864Z,4.80
2019-02-21T05:50:42.242Z,4.80
2019-02-21T05:53:22.500Z,4.80
2019-02-21T05:56:01.679Z,4.90
2019-02-21T05:59:04.675Z,5.10
2019-02-21T06:02:04.723Z,5.10
2019-02-21T06:04:53.315Z,5.10
2019-02-21T06:07:43.668Z,5.20
2019-02-21T06:10:24.151Z,5.20
2019-02-21T06:13:20.358Z,5.20
2019-02-21T06:16:13.494Z,5.30
2019-02-21T06:18:52.694Z,5.60
2019-02-21T06:21:33.120Z,5.60
2019-02-21T06:24:23.574Z,5.50
2019-02-21T06:27:02.822Z,5.70
2019-02-21T06:29:48.585Z,5.60
2019-02-21T06:32:20.354Z,5.60
2019-02-21T06:34:52.400Z,5.60
2019-02-21T06:37:24.274Z,5.40
2019-02-21T06:39:55.337Z,5.50
2019-02-21T06:42:26.627Z,5.70
2019-02-21T06:44:57.891Z,5.70
2019-02-21T06:47:29.810Z,5.80
2019-02-21T06:50:01.121Z,5.70
2019-02-21T06:52:32.680Z,5.70
2019-02-21T06:55:06.245Z,5.70
2019-02-21T06:57:37.501Z,5.70
2019-02-21T07:00:09.227Z,5.80
2019-02-21T07:02:40.172Z,5.90
2019-02-21T07:05:12.041Z,5.90
2019-02-21T07:07:43.805Z,5.70
2019-02-21T07:10:15.367Z,5.80
2019-02-21T07:12:46.461Z,5.80
2019-02-21T07:15:17.438Z,5.80
2019-02-21T07:17:49.778Z,5.80
2019-02-21T07:20:20.930Z,5.90
2019-02-21T07:22:52.591Z,5.90
2019-02-21T07:25:32.287Z,6.00
2019-02-21T07:28:11.375Z,6.10
2019-02-21T07:30:36.037Z,6.20
2019-02-21T07:33:07.319Z,6.20
2019-02-21T07:35:38.887Z,6.30
2019-02-21T07:38:09.888Z,6.40
2019-02-21T07:40:40.881Z,6.40
2019-02-21T07:43:13.020Z,6.40
2019-02-21T07:45:44.645Z,6.50
2019-02-21T07:48:15.682Z,6.60
2019-02-21T07:50:47.042Z,6.70
2019-02-21T07:53:18.614Z,6.70
2019-02-21T07:55:50.486Z,6.80
2019-02-21T07:58:21.405Z,6.90
2019-02-21T08:00:54.081Z,6.80
2019-02-21T08:03:30.285Z,6.90
2019-02-21T08:05:59.214Z,6.80
2019-02-21T08:08:32.475Z,6.90
2019-02-21T08:11:03.865Z,7.10
2019-02-21T08:13:35.461Z,7.00
2019-02-21T08:16:06.765Z,6.90
2019-02-21T08:18:38.015Z,7.00
2019-02-21T08:21:09.535Z,7.30
2019-02-21T08:23:50.039Z,7.30
2019-02-21T08:26:14.773Z,7.20
2019-02-21T08:28:46.354Z,7.20
2019-02-21T08:31:18.031Z,7.10
2019-02-21T08:33:58.638Z,7.30
2019-02-21T08:36:29.154Z,7.30
2019-02-21T08:39:00.429Z,7.20
2019-02-21T08:41:32.267Z,7.40
2019-02-21T08:44:03.852Z,7.30
2019-02-21T08:46:35.617Z,7.40
2019-02-21T08:49:07.496Z,7.50
2019-02-21T08:51:39.086Z,7.50
2019-02-21T08:54:11.566Z,7.50
2019-02-21T08:56:42.899Z,7.70
2019-02-21T08:59:14.762Z,7.80
2019-02-21T09:01:46.057Z,7.90
2019-02-21T09:04:26.873Z,8.00
2019-02-21T09:06:50.258Z,8.30
2019-02-21T09:09:21.528Z,8.30
2019-02-21T09:11:53.931Z,8.50
2019-02-21T09:14:25.367Z,8.70
2019-02-21T09:16:57.006Z,8.80
2019-02-21T09:19:30.539Z,8.90
2019-02-21T09:22:01.051Z,9.00
2019-02-21T09:24:38.740Z,9.10
2019-02-21T09:27:05.151Z,9.10
2019-02-21T09:29:36.816Z,9.20
2019-02-21T09:32:08.566Z,9.30
2019-02-21T09:34:40.146Z,9.50
2019-02-21T09:37:11.714Z,9.50
2019-02-21T09:39:43.277Z,9.50
2019-02-21T09:42:14.910Z,9.50
2019-02-21T09:44:46.585Z,9.40
2019-02-21T09:47:18.230Z,9.30
2019-02-21T09:49:50.103Z,9.40
2019-02-21T09:52:22.018Z,9.40
2019-02-21T09:54:53.036Z,9.40
2019-02-21T09:57:24.278Z,9.80
2019-02-21T09:59:55.273Z,9.90
2019-02-21T10:02:26.593Z,10.20
2019-02-21T10:05:05.198Z,10.10
2019-02-21T10:07:31.510Z,10.00
2019-02-21T10:10:02.537Z,10.10
2019-02-21T10:12:34.134Z,10.40
2019-02-21T10:15:05.674Z,10.60
2019-02-21T10:17:36.386Z,10.50
2019-02-21T10:20:10.952Z,10.80
2019-02-21T10:22:42.875Z,10.90
2019-02-21T10:25:18.382Z,11.00
2019-02-21T10:27:50.003Z,11.30
2019-02-21T10:30:22.316Z,11.50
2019-02-21T10:32:53.592Z,11.70
2019-02-21T10:35:25.987Z,11.90
2019-02-21T10:37:56.723Z,12.00
2019-02-21T10:40:28.403Z,12.20
2019-02-21T10:42:59.796Z,12.60
2019-02-21T10:45:31.388Z,13.20
2019-02-21T10:48:02.134Z,13.60
2019-02-21T10:50:33.759Z,13.30
2019-02-21T10:53:05.660Z,13.20
2019-02-21T10:55:37.241Z,13.30
2019-02-21T10:58:08.506Z,13.90
2019-02-21T11:00:40.120Z,14.50
2019-02-21T11:03:11.422Z,14.80
2019-02-21T11:05:43.297Z,15.30
2019-02-21T11:08:14.921Z,16.10
2019-02-21T11:10:46.687Z,16.30
2019-02-21T11:13:17.689Z,16.40
2019-02-21T11:15:49.294Z,16.40
2019-02-21T11:18:20.288Z,16.00
2019-02-21T11:20:51.889Z,15.90
2019-02-21T11:23:23.495Z,15.50
2019-02-21T11:25:54.620Z,15.00
2019-02-21T11:28:27.122Z,14.80
2019-02-21T11:30:58.476Z,14.50
2019-02-21T11:33:29.694Z,14.50
2019-02-21T11:36:00.985Z,14.20
2019-02-21T11:38:32.343Z,14.10
2019-02-21T11:41:04.669Z,14.00
2019-02-21T11:43:36.284Z,13.90
2019-02-21T11:46:08.366Z,14.00
2019-02-21T11:48:39.349Z,14.30
2019-02-21T11:51:10.690Z,14.50
2019-02-21T11:53:41.798Z,15.00
2019-02-21T11:56:15.667Z,15.50
2019-02-21T11:58:46.508Z,15.70
2019-02-21T12:01:17.524Z,15.40
2019-02-21T12:03:48.265Z,15.20
2019-02-21T12:06:19.293Z,15.50
2019-02-21T12:08:50.936Z,16.20
2019-02-21T12:11:22.567Z,17.00
2019-02-21T12:13:54.524Z,17.60
2019-02-21T12:16:26.417Z,17.80
2019-02-21T12:18:58.329Z,17.60
2019-02-21T12:21:29.292Z,17.50
2019-02-21T12:24:01.052Z,17.30
2019-02-21T12:26:32.003Z,17.80
2019-02-21T12:29:02.956Z,17.70
2019-02-21T12:31:34.614Z,17.70
2019-02-21T12:34:06.067Z,17.60
2019-02-21T12:36:37.378Z,17.50
2019-02-21T12:39:09.510Z,17.60
2019-02-21T12:41:41.287Z,17.20
2019-02-21T12:44:12.741Z,17.10
2019-02-21T12:46:45.663Z,16.70
2019-02-21T12:49:17.217Z,16.50
2019-02-21T12:51:48.247Z,16.50
2019-02-21T12:54:19.501Z,16.50
2019-02-21T12:56:50.883Z,16.40
2019-02-21T12:59:21.605Z,16.10
2019-02-21T13:01:53.368Z,16.00
2019-02-21T13:04:24.662Z,15.80
2019-02-21T13:06:56.602Z,15.80
2019-02-21T13:09:27.882Z,16.10
2019-02-21T13:11:59.191Z,16.00
2019-02-21T13:14:31.224Z,16.40
2019-02-21T13:17:03.142Z,16.90
2019-02-21T13:19:35.202Z,17.50
2019-02-21T13:22:06.882Z,18.10
2019-02-21T13:24:37.848Z,18.80
2019-02-21T13:27:13.555Z,19.50
2019-02-21T13:29:44.800Z,20.00
2019-02-21T13:32:16.434Z,20.50
2019-02-21T13:34:47.794Z,20.60
2019-02-21T13:37:28.212Z,20.30
2019-02-21T13:39:52.983Z,19.60
2019-02-21T13:42:24.610Z,19.40
2019-02-21T13:44:56.195Z,19.20
2019-02-21T13:47:27.687Z,18.90
2019-02-21T13:49:59.294Z,18.60
2019-02-21T13:52:31.054Z,18.30
2019-02-21T13:55:02.394Z,18.00
2019-02-21T13:57:33.383Z,18.10
2019-02-21T14:00:05.180Z,17.90
2019-02-21T14:02:36.713Z,17.60
2019-02-21T14:05:09.201Z,17.60
2019-02-21T14:07:40.197Z,17.70
2019-02-21T14:10:11.614Z,18.10
2019-02-21T14:12:43.413Z,17.90
2019-02-21T14:15:18.138Z,17.50
2019-02-21T14:17:49.855Z,17.60
2019-02-21T14:20:21.600Z,17.60
2019-02-21T14:22:53.340Z,17.30
2019-02-21T14:25:24.681Z,17.40
2019-02-21T14:27:55.955Z,17.00
2019-02-21T14:30:27.265Z,16.80
2019-02-21T14:32:58.913Z,16.50
2019-02-21T14:35:31.239Z,16.50
2019-02-21T14:38:02.643Z,16.60
2019-02-21T14:40:35.410Z,16.70
2019-02-21T14:43:07.026Z,16.60
2019-02-21T14:45:38.175Z,16.90
2019-02-21T14:48:09.466Z,17.10
2019-02-21T14:50:40.458Z,17.40
2019-02-21T14:53:12.057Z,17.80
2019-02-21T14:55:43.360Z,17.70
2019-02-21T14:58:14.697Z,17.70
2019-02-21T15:00:45.836Z,17.30
2019-02-21T15:03:21.878Z,17.10
2019-02-21T15:05:51.551Z,16.90
2019-02-21T15:08:23.078Z,16.60
2019-02-21T15:10:54.075Z,16.60
2019-02-21T15:13:25.722Z,16.60
2019-02-21T15:15:56.851Z,16.50
2019-02-21T15:18:28.203Z,16.50
2019-02-21T15:21:00.134Z,16.40
2019-02-21T15:23:31.561Z,16.30
2019-02-21T15:26:02.941Z,16.30
2019-02-21T15:28:34.539Z,16.40
2019-02-21T15:31:06.216Z,16.40
2019-02-21T15:33:37.583Z,16.30
2019-02-21T15:36:09.518Z,16.00
2019-02-21T15:38:41.115Z,15.90
2019-02-21T15:41:12.673Z,15.80
2019-02-21T15:43:44.530Z,15.80
2019-02-21T15:46:17.629Z,15.70
2019-02-21T15:48:49.290Z,15.60
2019-02-21T15:51:20.540Z,15.50
2019-02-21T15:53:52.267Z,15.60
2019-02-21T15:56:23.597Z,15.50
2019-02-21T15:58:54.782Z,15.50
2019-02-21T16:01:25.757Z,15.40
2019-02-21T16:03:56.541Z,15.40
2019-02-21T16:06:28.746Z,15.30
2019-02-21T16:09:00.112Z,15.40
2019-02-21T16:11:31.743Z,15.50
2019-02-21T16:14:03.852Z,15.30
2019-02-21T16:16:35.648Z,15.10
2019-02-21T16:19:07.476Z,14.90
2019-02-21T16:21:39.406Z,14.90
2019-02-21T16:24:10.971Z,14.80
2019-02-21T16:26:42.662Z,14.80
2019-02-21T16:29:14.227Z,14.80
2019-02-21T16:31:46.120Z,14.70
2019-02-21T16:34:18.060Z,14.70
2019-02-21T16:36:49.685Z,14.50
2019-02-21T16:39:23.571Z,14.40
2019-02-21T16:41:54.045Z,14.30
2019-02-21T16:44:25.814Z,14.20
2019-02-21T16:46:57.338Z,14.10
2019-02-21T16:49:28.686Z,14.00
2019-02-21T16:51:59.680Z,13.90
2019-02-21T16:54:31.592Z,13.90
2019-02-21T16:57:02.923Z,13.80
2019-02-21T16:59:34.593Z,13.70
2019-02-21T17:02:06.230Z,13.60
2019-02-21T17:04:40.981Z,13.60
2019-02-21T17:07:16.210Z,13.50
2019-02-21T17:09:46.518Z,13.60
2019-02-21T17:12:18.145Z,13.40
2019-02-21T17:14:49.729Z,13.30
2019-02-21T17:17:21.289Z,13.30
2019-02-21T17:19:53.214Z,13.10
2019-02-21T17:22:24.379Z,13.00
2019-02-21T17:24:56.033Z,12.90
2019-02-21T17:27:27.298Z,12.90
2019-02-21T17:29:59.322Z,13.30
2019-02-21T17:32:30.761Z,13.20
2019-02-21T17:35:02.652Z,13.00
2019-02-21T17:37:33.983Z,12.90
2019-02-21T17:40:05.189Z,12.90
2019-02-21T17:42:36.281Z,13.00
2019-02-21T17:45:08.175Z,12.90
2019-02-21T17:47:40.304Z,12.90
2019-02-21T17:50:12.552Z,12.80
2019-02-21T17:52:44.356Z,12.70
2019-02-21T17:55:16.015Z,12.60
2019-02-21T17:57:47.988Z,12.60
2019-02-21T18:00:26.893Z,12.60
2019-02-21T18:02:58.346Z,12.90
2019-02-21T18:05:30.029Z,12.90
2019-02-21T18:08:01.675Z,12.80
2019-02-21T18:10:33.397Z,12.90
2019-02-21T18:13:05.155Z,12.90
2019-02-21T18:15:36.566Z,13.00
2019-02-21T18:18:08.309Z,12.90
2019-02-21T18:20:39.336Z,12.80
2019-02-21T18:23:12.486Z,12.80
2019-02-21T18:25:49.668Z,12.70
2019-02-21T18:28:21.108Z,12.70
2019-02-21T18:30:52.041Z,12.70
2019-02-21T18:33:23.792Z,12.70
2019-02-21T18:35:55.148Z,12.70
2019-02-21T18:38:27.815Z,12.70
2019-02-21T18:41:00.198Z,12.60
2019-02-21T18:43:32.480Z,12.60
2019-02-21T18:46:04.314Z,12.70
2019-02-21T18:48:37.255Z,12.70
2019-02-21T18:51:09.977Z,12.60
2019-02-21T18:53:43.146Z,12.60
2019-02-21T18:56:15.113Z,12.50
2019-02-21T18:58:47.357Z,12.50
2019-02-21T19:01:19.394Z,12.50
2019-02-21T19:03:51.237Z,12.40
2019-02-21T19:06:23.298Z,12.40
2019-02-21T19:08:54.764Z,12.30
2019-02-21T19:11:26.141Z,12.30
2019-02-21T19:13:58.837Z,12.20
2019-02-21T19:16:31.314Z,12.10
2019-02-21T19:19:03.204Z,12.10
2019-02-21T19:21:35.126Z,12.10
2019-02-21T19:24:06.568Z,12.00
2019-02-21T19:26:38.289Z,12.00
2019-02-21T19:29:09.660Z,12.00
2019-02-21T19:31:40.733Z,12.10
2019-02-21T19:34:12.486Z,12.00
2019-02-21T19:36:44.406Z,11.90
2019-02-21T19:39:16.685Z,11.80
2019-02-21T19:41:49.473Z,11.80
2019-02-21T19:44:20.565Z,11.70
2019-02-21T19:46:52.467Z,11.60
2019-02-21T19:49:23.727Z,11.60
2019-02-21T19:51:55.198Z,11.50
2019-02-21T19:54:26.846Z,11.50
2019-02-21T19:56:59.020Z,11.50
2019-02-21T19:59:31.048Z,11.40
2019-02-21T20:02:02.353Z,11.40
2019-02-21T20:04:34.701Z,11.30
2019-02-21T20:07:06.831Z,11.20
2019-02-21T20:09:39.112Z,11.10
2019-02-21T20:12:10.727Z,11.10
2019-02-21T20:14:42.689Z,11.00
2019-02-21T20:17:15.177Z,11.00
2019-02-21T20:19:47.245Z,11.00
2019-02-21T20:22:19.371Z,11.00
2019-02-21T20:24:51.614Z,11.00
2019-02-21T20:27:23.415Z,10.90
2019-02-21T20:29:55.621Z,10.90
2019-02-21T20:32:26.889Z,10.80
2019-02-21T20:34:59.205Z,10.80
2019-02-21T20:37:30.634Z,10.80
2019-02-21T20:40:02.781Z,10.80
2019-02-21T20:42:34.673Z,10.80
2019-02-21T20:45:07.998Z,10.70
2019-02-21T20:47:39.916Z,10.80
2019-02-21T20:50:12.050Z,10.70
2019-02-21T20:52:43.817Z,10.70
2019-02-21T20:55:15.307Z,10.80
2019-02-21T20:57:47.287Z,10.80
2019-02-21T21:00:20.232Z,10.80
2019-02-21T21:02:51.901Z,10.70
2019-02-21T21:05:24.019Z,10.70
2019-02-21T21:07:55.903Z,10.80
2019-02-21T21:10:27.323Z,10.70
2019-02-21T21:12:59.138Z,10.70
2019-02-21T21:15:31.303Z,10.60
2019-02-21T21:18:03.150Z,10.60
2019-02-21T21:20:35.191Z,10.60
2019-02-21T21:23:06.958Z,10.50
2019-02-21T21:25:37.942Z,10.50
2019-02-21T21:28:10.251Z,10.50
2019-02-21T21:30:42.339Z,10.50
2019-02-21T21:33:14.588Z,10.50
2019-02-21T21:35:46.066Z,10.50
2019-02-21T21:38:24.133Z,10.50
2019-02-21T21:40:51.517Z,10.50
2019-02-21T21:43:23.370Z,10.50
2019-02-21T21:45:55.147Z,10.50
2019-02-21T21:48:26.792Z,10.50
2019-02-21T21:50:58.952Z,10.50
2019-02-21T21:53:30.763Z,10.50
2019-02-21T21:56:02.128Z,10.50
2019-02-21T21:58:34.524Z,10.40
2019-02-21T22:01:06.082Z,10.40
2019-02-21T22:03:37.753Z,10.40
2019-02-21T22:06:09.742Z,10.50
2019-02-21T22:08:41.822Z,10.40
2019-02-21T22:11:13.154Z,10.40
2019-02-21T22:13:45.474Z,10.30
2019-02-21T22:16:17.353Z,10.30
2019-02-21T22:18:49.020Z,10.30
2019-02-21T22:21:20.758Z,10.30
2019-02-21T22:23:52.801Z,10.30
2019-02-21T22:26:24.228Z,10.30
2019-02-21T22:28:55.978Z,10.30
2019-02-21T22:31:27.758Z,10.30
2019-02-21T22:33:59.823Z,10.40
2019-02-21T22:36:31.380Z,10.40
2019-02-21T22:39:03.172Z,10.40
2019-02-21T22:41:34.104Z,10.40
2019-02-21T22:44:05.182Z,10.40
2019-02-21T22:46:36.451Z,10.40
2019-02-21T22:49:07.755Z,10.40
2019-02-21T22:51:39.001Z,10.40
2019-02-21T22:54:09.775Z,10.40
2019-02-21T22:56:40.781Z,10.40
2019-02-21T22:59:12.451Z,10.40
2019-02-21T23:01:48.497Z,10.40
2019-02-21T23:05:07.367Z,10.40
2019-02-21T23:08:27.770Z,10.40
2019-02-21T23:10:59.044Z,10.40
2019-02-21T23:13:30.616Z,10.40
2019-02-21T23:16:02.201Z,10.40
2019-02-21T23:18:33.518Z,10.40
2019-02-21T23:21:05.208Z,10.40
2019-02-21T23:23:36.447Z,10.40
2019-02-21T23:26:07.976Z,10.50
2019-02-21T23:28:39.528Z,10.40
2019-02-21T23:31:10.508Z,10.40
2019-02-21T23:33:48.702Z,10.30
2019-02-21T23:36:20.286Z,10.40
2019-02-21T23:38:51.848Z,10.40
2019-02-21T23:41:23.676Z,10.40
2019-02-21T23:43:54.956Z,10.40
2019-02-21T23:46:26.852Z,10.40
2019-02-21T23:48:58.081Z,10.40
2019-02-21T23:51:29.369Z,10.40
2019-02-21T23:54:03.137Z,10.30
2019-02-21T23:56:33.576Z,10.30
2019-02-21T23:59:04.528Z,10.40
